createdAt,value
2023-10-06T00:00:35.373Z,2.77
2023-10-06T00:03:13.484Z,3.05
2023-10-06T00:05:40.150Z,3.25
2023-10-06T00:08:31.433Z,2.58
2023-10-06T00:11:04.397Z,2.70
2023-10-06T00:13:40.511Z,2.83
2023-10-06T00:16:08.901Z,3.17
2023-10-06T00:18:47.616Z,2.90
2023-10-06T00:21:23.042Z,2.42
2023-10-06T00:23:50.646Z,2.72
2023-10-06T00:26:21.110Z,3.33
2023-10-06T00:28:47.707Z,2.90
2023-10-06T00:31:15.129Z,2.78
2023-10-06T00:33:43.695Z,2.83
2023-10-06T00:36:14.916Z,3.80
2023-10-06T00:38:55.478Z,3.17
2023-10-06T00:41:27.811Z,2.83
2023-10-06T00:43:56.524Z,3.10
2023-10-06T00:46:23.031Z,3.20
2023-10-06T00:49:08.147Z,3.35
2023-10-06T00:51:34.778Z,3.40
2023-10-06T00:54:01.337Z,3.83
2023-10-06T00:56:37.446Z,3.50
2023-10-06T00:59:06.971Z,3.58
2023-10-06T01:01:38.945Z,2.90
2023-10-06T01:04:19.778Z,3.13
2023-10-06T01:06:49.026Z,3.15
2023-10-06T01:09:17.259Z,3.55
2023-10-06T01:11:51.655Z,3.38
2023-10-06T01:14:31.701Z,3.38
2023-10-06T01:17:26.962Z,2.90
2023-10-06T01:20:08.423Z,2.88
2023-10-06T01:22:47.696Z,3.03
2023-10-06T01:25:26.007Z,3.10
2023-10-06T01:27:52.785Z,3.10
2023-10-06T01:30:19.893Z,3.30
2023-10-06T01:32:56.165Z,2.65
2023-10-06T01:35:25.151Z,2.95
2023-10-06T01:38:04.575Z,3.00
2023-10-06T01:40:31.033Z,2.80
2023-10-06T01:43:01.730Z,2.70
2023-10-06T01:45:31.904Z,2.80
2023-10-06T01:48:13.457Z,2.97
2023-10-06T01:50:43.378Z,2.45
2023-10-06T01:53:22.437Z,3.50
2023-10-06T01:55:53.757Z,3.40
2023-10-06T01:58:20.461Z,3.20
2023-10-06T02:00:49.909Z,2.92
2023-10-06T02:03:19.299Z,2.70
2023-10-06T02:05:46.002Z,2.50
2023-10-06T02:08:22.328Z,2.70
2023-10-06T02:10:54.156Z,2.28
2023-10-06T02:13:23.637Z,3.10
2023-10-06T02:16:04.209Z,2.65
2023-10-06T02:18:39.391Z,2.88
2023-10-06T02:21:34.337Z,2.73
2023-10-06T02:24:09.893Z,3.22
2023-10-06T02:26:38.806Z,3.05
2023-10-06T02:29:25.815Z,2.55
2023-10-06T02:31:53.253Z,3.17
2023-10-06T02:34:47.912Z,2.57
2023-10-06T02:37:14.557Z,2.40
2023-10-06T02:39:46.773Z,3.13
2023-10-06T02:42:16.636Z,2.83
2023-10-06T02:44:43.608Z,3.35
2023-10-06T02:47:20.588Z,2.97
2023-10-06T02:49:52.049Z,3.35
2023-10-06T02:52:34.326Z,3.40
2023-10-06T02:55:03.759Z,2.72
2023-10-06T02:57:38.524Z,3.72
2023-10-06T03:00:26.795Z,3.00
2023-10-06T03:03:03.496Z,3.47
2023-10-06T03:05:34.526Z,3.90
2023-10-06T03:08:10.997Z,3.53
2023-10-06T03:10:46.172Z,3.60
2023-10-06T03:13:16.168Z,3.23
2023-10-06T03:15:50.076Z,3.28
2023-10-06T03:18:20.214Z,3.25
2023-10-06T03:21:00.397Z,4.50
2023-10-06T03:23:33.384Z,3.65
2023-10-06T03:26:03.735Z,3.87
2023-10-06T03:28:44.624Z,3.67
2023-10-06T03:31:32.349Z,3.90
2023-10-06T03:33:58.755Z,4.18
2023-10-06T03:36:48.332Z,3.83
2023-10-06T03:39:25.553Z,3.90
2023-10-06T03:41:57.305Z,3.55
2023-10-06T03:44:31.493Z,3.75
2023-10-06T03:47:04.498Z,3.90
2023-10-06T03:49:34.988Z,4.07
2023-10-06T03:52:06.745Z,3.97
2023-10-06T03:54:37.547Z,4.22
2023-10-06T03:57:07.943Z,3.95
2023-10-06T03:59:40.303Z,3.35
2023-10-06T04:04:54.164Z,3.50
2023-10-06T04:07:24.908Z,3.72
2023-10-06T04:09:54.055Z,3.97
2023-10-06T04:12:22.882Z,3.13
2023-10-06T04:14:49.311Z,3.70
2023-10-06T04:17:20.329Z,3.23
2023-10-06T04:19:52.729Z,3.67
2023-10-06T04:22:27.622Z,3.22
2023-10-06T04:24:54.060Z,3.63
2023-10-06T04:27:25.651Z,3.33
2023-10-06T04:29:54.804Z,3.20
2023-10-06T04:32:29.079Z,3.30
2023-10-06T04:34:55.707Z,3.08
2023-10-06T04:37:23.210Z,3.60
2023-10-06T04:39:52.804Z,2.60
2023-10-06T04:42:19.826Z,2.87
2023-10-06T04:44:54.118Z,2.85
2023-10-06T04:47:24.090Z,2.80
2023-10-06T04:49:56.853Z,3.33
2023-10-06T04:52:28.757Z,2.65
2023-10-06T05:00:28.182Z,3.13
2023-10-06T05:02:54.661Z,3.00
2023-10-06T05:05:27.243Z,3.03
2023-10-06T05:07:57.909Z,2.63
2023-10-06T05:10:26.731Z,2.65
2023-10-06T05:12:56.163Z,2.67
2023-10-06T05:15:25.228Z,2.72
2023-10-06T05:17:58.027Z,3.25
2023-10-06T05:20:34.698Z,3.20
2023-10-06T05:23:14.236Z,2.67
2023-10-06T05:25:46.157Z,2.88
2023-10-06T05:28:15.362Z,3.03
2023-10-06T05:30:45.740Z,3.08
2023-10-06T05:33:12.404Z,3.00
2023-10-06T05:35:42.349Z,3.05
2023-10-06T05:38:14.322Z,2.95
2023-10-06T05:40:45.390Z,2.83
2023-10-06T05:43:18.622Z,3.22
2023-10-06T05:45:56.488Z,2.83
2023-10-06T05:48:34.959Z,2.65
2023-10-06T05:51:10.292Z,3.00
2023-10-06T05:53:44.307Z,3.13
2023-10-06T05:56:16.436Z,3.50
2023-10-06T05:58:44.588Z,2.87
2023-10-06T06:01:21.864Z,3.42
2023-10-06T06:03:49.052Z,3.17
2023-10-06T06:06:17.020Z,3.00
2023-10-06T06:08:49.565Z,3.53
2023-10-06T06:11:19.447Z,2.80
2023-10-06T06:13:58.910Z,3.30
2023-10-06T06:16:33.163Z,3.03
2023-10-06T06:19:05.071Z,2.78
2023-10-06T06:21:31.776Z,2.72
2023-10-06T06:23:58.955Z,3.40
2023-10-06T06:26:29.186Z,2.80
2023-10-06T06:28:55.670Z,3.20
2023-10-06T06:31:25.306Z,3.17
2023-10-06T06:33:57.910Z,3.47
2023-10-06T06:36:24.948Z,2.90
2023-10-06T06:38:54.890Z,4.10
2023-10-06T06:41:22.651Z,2.88
2023-10-06T06:43:49.422Z,3.03
2023-10-06T06:46:18.349Z,3.38
2023-10-06T06:48:48.176Z,3.00
2023-10-06T06:51:19.891Z,3.35
2023-10-06T06:53:49.278Z,2.97
2023-10-06T06:56:25.722Z,3.08
2023-10-06T06:58:57.351Z,3.83
2023-10-06T07:01:34.496Z,3.00
2023-10-06T07:04:07.145Z,2.92
2023-10-06T07:06:36.686Z,3.35
2023-10-06T07:09:11.104Z,3.38
2023-10-06T07:11:37.666Z,2.70
2023-10-06T07:14:04.801Z,3.30
2023-10-06T07:16:35.639Z,2.80
2023-10-06T07:19:02.044Z,2.70
2023-10-06T07:21:29.432Z,3.00
2023-10-06T07:24:02.889Z,3.03
2023-10-06T07:26:30.408Z,3.10
2023-10-06T07:29:00.658Z,2.88
2023-10-06T07:31:30.206Z,2.38
2023-10-06T07:34:01.292Z,2.50
2023-10-06T07:36:31.830Z,2.60
2023-10-06T07:38:58.948Z,2.80
2023-10-06T07:41:28.486Z,2.65
2023-10-06T07:43:55.766Z,2.28
2023-10-06T07:46:22.363Z,2.47
2023-10-06T07:48:52.100Z,2.38
2023-10-06T07:51:18.602Z,2.40
2023-10-06T07:53:45.072Z,2.45
2023-10-06T07:56:13.362Z,3.25
2023-10-06T07:58:42.963Z,2.20
2023-10-06T08:01:11.784Z,2.20
2023-10-06T08:03:45.821Z,2.30
2023-10-06T08:06:13.071Z,1.80
2023-10-06T08:08:42.756Z,3.15
2023-10-06T08:11:10.456Z,1.90
2023-10-06T08:16:21.148Z,2.07
2023-10-06T08:18:47.675Z,2.53
2023-10-06T08:21:14.231Z,2.47
2023-10-06T08:23:40.740Z,2.33
2023-10-06T08:26:10.722Z,1.70
2023-10-06T08:28:41.806Z,2.00
2023-10-06T08:31:18.359Z,2.05
2023-10-06T08:33:46.721Z,2.33
2023-10-06T08:36:22.996Z,2.40
2023-10-06T08:38:51.676Z,2.70
2023-10-06T08:41:39.263Z,2.30
2023-10-06T08:44:08.620Z,2.42
2023-10-06T08:46:41.814Z,2.38
2023-10-06T08:49:08.886Z,2.22
2023-10-06T08:51:38.145Z,2.30
2023-10-06T08:54:14.741Z,2.10
2023-10-06T08:56:44.341Z,1.98
2023-10-06T08:59:16.390Z,2.60
2023-10-06T09:01:46.710Z,2.10
2023-10-06T09:04:17.564Z,2.90
2023-10-06T09:07:18.474Z,2.07
2023-10-06T09:09:45.049Z,2.90
2023-10-06T09:12:25.012Z,2.30
2023-10-06T09:15:02.381Z,1.88
2023-10-06T09:17:38.548Z,2.78
2023-10-06T09:20:13.408Z,2.27
2023-10-06T09:22:51.486Z,1.88
2023-10-06T09:25:22.546Z,2.80
2023-10-06T09:27:50.125Z,2.40
2023-10-06T09:30:23.897Z,2.38
2023-10-06T09:33:06.375Z,2.30
2023-10-06T09:35:33.381Z,2.38
2023-10-06T09:38:15.040Z,2.20
2023-10-06T09:40:43.710Z,2.15
2023-10-06T09:43:22.485Z,3.05
2023-10-06T09:45:53.353Z,2.33
2023-10-06T09:48:28.801Z,2.08
2023-10-06T09:51:02.711Z,2.53
2023-10-06T09:53:31.578Z,2.28
2023-10-06T09:56:07.434Z,2.70
2023-10-06T09:58:40.496Z,2.60
2023-10-06T10:01:07.742Z,2.80
2023-10-06T10:03:38.684Z,2.30
2023-10-06T10:06:09.664Z,1.95
2023-10-06T10:08:37.706Z,3.17
2023-10-06T10:11:31.719Z,2.13
2023-10-06T10:14:26.737Z,1.90
2023-10-06T10:17:15.312Z,2.60
2023-10-06T10:22:32.608Z,2.38
2023-10-06T10:27:40.147Z,2.40
2023-10-06T10:30:16.247Z,2.35
2023-10-06T10:32:46.459Z,2.65
2023-10-06T10:35:19.069Z,1.90
2023-10-06T10:38:07.901Z,2.17
2023-10-06T10:40:48.721Z,2.15
2023-10-06T10:43:20.053Z,2.03
2023-10-06T10:45:49.496Z,2.10
2023-10-06T10:48:17.170Z,2.33
2023-10-06T10:51:12.781Z,2.17
2023-10-06T10:53:48.595Z,2.10
2023-10-06T10:56:35.339Z,1.88
2023-10-06T10:59:03.573Z,1.80
2023-10-06T11:01:39.750Z,1.75
2023-10-06T11:04:33.314Z,1.80
2023-10-06T11:07:16.238Z,1.98
2023-10-06T11:09:48.146Z,2.40
2023-10-06T11:12:25.604Z,1.33
2023-10-06T11:20:34.925Z,2.15
2023-10-06T11:23:04.675Z,2.35
2023-10-06T11:25:34.171Z,1.55
2023-10-06T11:28:06.004Z,1.55
2023-10-06T11:30:39.881Z,1.40
2023-10-06T11:33:14.892Z,1.92
2023-10-06T11:35:42.415Z,2.20
2023-10-06T11:38:20.628Z,1.85
2023-10-06T11:43:34.946Z,1.60
2023-10-06T11:46:06.515Z,2.03
2023-10-06T11:48:37.261Z,2.10
2023-10-06T11:51:09.130Z,1.90
2023-10-06T11:53:46.249Z,2.03
2023-10-06T11:56:15.234Z,2.50
2023-10-06T11:58:48.693Z,1.83
2023-10-06T12:01:41.903Z,1.48
2023-10-06T12:04:36.178Z,1.75
2023-10-06T12:07:24.978Z,2.10
2023-10-06T12:10:07.147Z,1.30
2023-10-06T12:12:36.417Z,1.98
2023-10-06T12:15:03.762Z,2.00
2023-10-06T12:17:37.604Z,1.95
2023-10-06T12:20:08.172Z,3.28
2023-10-06T12:22:42.887Z,2.00
2023-10-06T12:25:13.736Z,2.78
2023-10-06T12:27:45.025Z,3.45
2023-10-06T12:33:13.812Z,4.05
2023-10-06T12:35:50.560Z,2.40
2023-10-06T12:38:42.927Z,2.80
2023-10-06T12:41:13.337Z,2.00
2023-10-06T12:43:39.987Z,1.90
2023-10-06T12:46:12.089Z,2.88
2023-10-06T12:48:39.940Z,3.20
2023-10-06T12:51:19.079Z,2.53
2023-10-06T12:53:49.336Z,1.85
2023-10-06T12:56:18.735Z,2.35
2023-10-06T12:58:45.249Z,2.25
2023-10-06T13:01:14.588Z,2.07
2023-10-06T13:03:44.131Z,2.45
2023-10-06T13:08:57.329Z,2.65
2023-10-06T13:11:28.858Z,2.63
2023-10-06T13:13:57.879Z,2.23
2023-10-06T13:16:25.011Z,2.80
2023-10-06T13:18:55.121Z,2.00
2023-10-06T13:21:27.466Z,1.98
2023-10-06T13:24:02.289Z,2.38
2023-10-06T13:26:40.529Z,1.90
2023-10-06T13:29:10.563Z,1.70
2023-10-06T13:31:38.248Z,2.17
2023-10-06T13:34:12.824Z,2.40
2023-10-06T13:36:42.407Z,1.83
2023-10-06T13:41:55.238Z,1.67
2023-10-06T13:44:25.158Z,1.98
2023-10-06T13:46:53.321Z,1.95
2023-10-06T13:49:25.001Z,1.83
2023-10-06T13:51:51.472Z,1.80
2023-10-06T13:54:21.490Z,1.77
2023-10-06T13:56:51.525Z,1.80
2023-10-06T13:59:26.885Z,1.83
2023-10-06T14:01:53.924Z,2.00
2023-10-06T14:07:16.465Z,1.85
2023-10-06T14:09:42.849Z,1.67
2023-10-06T14:12:18.838Z,1.90
2023-10-06T14:14:47.858Z,2.30
2023-10-06T14:20:24.761Z,1.92
2023-10-06T14:23:04.051Z,1.90
2023-10-06T14:28:19.875Z,1.88
2023-10-06T14:30:52.331Z,1.70
2023-10-06T14:33:48.890Z,2.00
2023-10-06T14:36:15.479Z,2.13
2023-10-06T14:41:41.551Z,2.10
2023-10-06T14:44:28.775Z,1.73
2023-10-06T14:46:59.816Z,2.30
2023-10-06T14:54:53.263Z,1.98
2023-10-06T14:57:23.114Z,2.20
2023-10-06T14:59:54.101Z,2.60
2023-10-06T15:02:25.882Z,2.60
2023-10-06T15:04:52.664Z,1.75
2023-10-06T15:07:22.571Z,2.10
2023-10-06T15:09:50.520Z,2.50
2023-10-06T15:12:18.378Z,2.42
2023-10-06T15:14:46.012Z,2.35
2023-10-06T15:17:12.931Z,2.60
2023-10-06T15:19:39.473Z,2.10
2023-10-06T15:22:29.275Z,1.90
2023-10-06T15:24:58.626Z,2.42
2023-10-06T15:30:06.029Z,2.10
2023-10-06T15:32:32.510Z,2.20
2023-10-06T15:35:02.222Z,2.97
2023-10-06T15:37:32.299Z,2.80
2023-10-06T15:39:59.417Z,2.60
2023-10-06T15:42:26.659Z,2.20
2023-10-06T15:45:01.367Z,2.80
2023-10-06T15:47:30.624Z,3.17
2023-10-06T15:50:10.763Z,2.83
2023-10-06T15:52:50.112Z,3.47
2023-10-06T15:55:17.056Z,3.38
2023-10-06T15:57:47.582Z,3.10
2023-10-06T16:00:18.567Z,3.90
2023-10-06T16:08:18.143Z,3.88
2023-10-06T16:10:44.651Z,3.63
2023-10-06T16:13:14.658Z,3.20
2023-10-06T16:15:55.206Z,3.50
2023-10-06T16:18:30.701Z,4.10
2023-10-06T16:21:00.903Z,3.60
2023-10-06T16:23:27.962Z,3.38
2023-10-06T16:25:54.766Z,3.23
2023-10-06T16:28:30.671Z,3.05
2023-10-06T16:31:04.698Z,3.25
2023-10-06T16:33:37.215Z,2.97
2023-10-06T16:36:13.981Z,3.17
2023-10-06T16:38:42.058Z,3.30
2023-10-06T16:41:15.828Z,2.80
2023-10-06T16:43:42.721Z,3.28
2023-10-06T16:46:09.245Z,3.10
2023-10-06T16:48:41.341Z,3.25
2023-10-06T16:51:16.651Z,2.80
2023-10-06T16:53:43.187Z,2.63
2023-10-06T16:56:09.936Z,2.72
2023-10-06T16:58:39.728Z,3.13
2023-10-06T17:01:09.383Z,3.50
2023-10-06T17:03:36.220Z,3.23
2023-10-06T17:06:05.357Z,3.35
2023-10-06T17:08:32.006Z,3.40
2023-10-06T17:11:13.099Z,3.97
2023-10-06T17:13:39.657Z,3.72
2023-10-06T17:16:10.442Z,4.50
2023-10-06T17:18:37.592Z,4.03
2023-10-06T17:21:12.992Z,4.07
2023-10-06T17:23:39.949Z,4.05
2023-10-06T17:26:10.084Z,4.72
2023-10-06T17:28:36.666Z,4.40
2023-10-06T17:31:03.248Z,4.25
2023-10-06T17:33:30.166Z,4.55
2023-10-06T17:36:04.137Z,5.28
2023-10-06T17:38:30.766Z,4.60
2023-10-06T17:41:04.123Z,4.73
2023-10-06T17:43:34.363Z,4.65
2023-10-06T17:46:05.188Z,4.88
2023-10-06T17:48:31.734Z,4.25
2023-10-06T17:50:58.651Z,5.28
2023-10-06T17:53:27.725Z,4.80
2023-10-06T17:56:00.511Z,4.30
2023-10-06T17:58:30.087Z,4.72
2023-10-06T18:00:59.501Z,4.32
2023-10-06T18:03:29.110Z,4.70
2023-10-06T18:05:55.984Z,4.17
2023-10-06T18:08:22.466Z,3.90
2023-10-06T18:10:49.195Z,4.07
2023-10-06T18:13:25.798Z,3.75
2023-10-06T18:16:06.683Z,3.47
2023-10-06T18:18:33.742Z,4.03
2023-10-06T18:21:04.439Z,2.97
2023-10-06T18:23:34.375Z,2.92
2023-10-06T18:26:14.640Z,2.75
2023-10-06T18:28:44.217Z,3.40
2023-10-06T18:31:13.135Z,2.50
2023-10-06T18:33:39.764Z,2.05
2023-10-06T18:36:12.321Z,3.03
2023-10-06T18:38:39.171Z,2.30
2023-10-06T18:41:12.482Z,2.20
2023-10-06T18:43:42.541Z,2.70
2023-10-06T18:46:12.910Z,1.83
2023-10-06T18:48:42.158Z,2.67
2023-10-06T18:51:08.885Z,2.00
2023-10-06T18:53:37.744Z,1.42
2023-10-06T18:56:08.312Z,1.77
2023-10-06T18:58:37.394Z,1.77
2023-10-06T19:01:05.461Z,1.63
2023-10-06T19:03:32.060Z,1.65
2023-10-06T19:06:00.112Z,1.10
2023-10-06T19:08:29.269Z,1.47
2023-10-06T19:10:55.853Z,1.50
2023-10-06T19:13:22.628Z,1.30
2023-10-06T19:15:59.530Z,1.73
2023-10-06T19:18:28.214Z,1.60
2023-10-06T19:21:03.367Z,1.10
2023-10-06T19:23:36.236Z,1.60
2023-10-06T19:26:07.447Z,1.52
2023-10-06T19:28:45.321Z,1.25
2023-10-06T19:31:14.576Z,1.40
2023-10-06T19:33:48.500Z,1.67
2023-10-06T19:36:20.712Z,1.02
2023-10-06T19:38:53.121Z,1.20
2023-10-06T19:41:29.588Z,1.23
2023-10-06T19:43:56.150Z,1.55
2023-10-06T19:46:26.235Z,1.37
2023-10-06T19:48:56.268Z,1.38
2023-10-06T19:51:26.622Z,1.65
2023-10-06T19:53:55.832Z,1.38
2023-10-06T19:56:28.607Z,1.63
2023-10-06T19:58:55.642Z,1.13
2023-10-06T20:01:26.296Z,1.45
2023-10-06T20:03:56.995Z,1.40
2023-10-06T20:06:23.515Z,1.25
2023-10-06T20:08:50.083Z,1.33
2023-10-06T20:11:25.048Z,1.80
2023-10-06T20:13:51.756Z,1.58
2023-10-06T20:19:05.125Z,1.35
2023-10-06T20:21:31.539Z,1.17
2023-10-06T20:23:58.323Z,1.37
2023-10-06T20:26:29.483Z,1.55
2023-10-06T20:28:56.353Z,1.17
2023-10-06T20:31:23.210Z,1.50
2023-10-06T20:33:52.756Z,2.40
2023-10-06T20:36:19.231Z,1.23
2023-10-06T20:38:45.626Z,1.58
2023-10-06T20:41:16.026Z,1.73
2023-10-06T20:43:45.528Z,1.50
2023-10-06T20:46:12.051Z,1.30
2023-10-06T20:48:41.112Z,1.60
2023-10-06T20:51:18.032Z,1.48
2023-10-06T20:53:46.896Z,2.33
2023-10-06T20:56:14.973Z,1.60
2023-10-06T20:58:44.704Z,1.48
2023-10-06T21:01:14.142Z,1.43
2023-10-06T21:03:40.624Z,1.40
2023-10-06T21:06:09.319Z,1.30
2023-10-06T21:08:36.637Z,1.77
2023-10-06T21:11:03.110Z,1.38
2023-10-06T21:13:32.076Z,1.40
2023-10-06T21:16:01.636Z,1.55
2023-10-06T21:18:30.661Z,1.50
2023-10-06T21:20:57.203Z,1.40
2023-10-06T21:23:23.698Z,1.45
2023-10-06T21:25:54.695Z,1.40
2023-10-06T21:28:23.584Z,1.40
2023-10-06T21:30:51.306Z,1.08
2023-10-06T21:33:20.800Z,1.42
2023-10-06T21:35:50.753Z,1.50
2023-10-06T21:38:17.311Z,1.30
2023-10-06T21:40:47.346Z,2.47
2023-10-06T21:43:16.955Z,1.60
2023-10-06T21:45:46.330Z,1.73
2023-10-06T21:48:15.648Z,1.77
2023-10-06T21:50:51.700Z,1.80
2023-10-06T21:53:21.194Z,1.42
2023-10-06T21:55:49.874Z,1.58
2023-10-06T21:58:22.604Z,2.20
2023-10-06T22:00:59.608Z,2.03
2023-10-06T22:03:30.085Z,1.70
2023-10-06T22:06:00.831Z,1.55
2023-10-06T22:08:27.368Z,1.80
2023-10-06T22:11:04.404Z,2.17
2023-10-06T22:13:32.941Z,1.65
2023-10-06T22:16:03.914Z,1.67
2023-10-06T22:18:33.263Z,1.90
2023-10-06T22:21:02.881Z,2.47
2023-10-06T22:23:35.111Z,1.80
2023-10-06T22:26:01.618Z,2.85
2023-10-06T22:28:31.061Z,2.03
2023-10-06T22:31:04.868Z,1.48
2023-10-06T22:33:34.879Z,1.92
2023-10-06T22:36:04.880Z,1.80
2023-10-06T22:41:20.016Z,1.87
2023-10-06T22:43:46.522Z,2.38
2023-10-06T22:46:13.014Z,2.05
2023-10-06T22:48:44.643Z,1.90
2023-10-06T22:51:14.698Z,1.90
2023-10-06T22:53:52.406Z,1.80
2023-10-06T22:56:19.083Z,1.52
2023-10-06T22:58:54.849Z,2.03
2023-10-06T23:01:21.413Z,1.75
2023-10-06T23:03:51.127Z,1.92
2023-10-06T23:06:18.502Z,1.77
2023-10-06T23:08:44.983Z,2.20
2023-10-06T23:11:22.298Z,1.90
2023-10-06T23:16:47.326Z,1.95
2023-10-06T23:19:23.259Z,1.90
2023-10-06T23:21:49.674Z,2.00
2023-10-06T23:29:45.659Z,2.35
2023-10-06T23:32:12.332Z,2.53
2023-10-06T23:34:39.204Z,2.53
2023-10-06T23:37:07.882Z,2.10
2023-10-06T23:39:38.476Z,1.83
2023-10-06T23:42:10.634Z,2.17
2023-10-06T23:44:39.984Z,2.03
2023-10-06T23:47:13.774Z,2.42
2023-10-06T23:49:41.462Z,1.98
2023-10-06T23:52:27.950Z,1.80
2023-10-06T23:57:55.963Z,2.70
